sensor_id;sensor_type;location;lat;lon;timestamp;temperature;humidity
9179;DHT22;71287;48.414;11.478;2023-12-20T00:00:29;6.00;99.90
9179;DHT22;71287;48.414;11.478;2023-12-20T00:02:56;6.00;99.90
9179;DHT22;71287;48.414;11.478;2023-12-20T00:05:23;6.00;99.90
9179;DHT22;71287;48.414;11.478;2023-12-20T00:07:50;6.00;99.90
9179;DHT22;71287;48.414;11.478;2023-12-20T00:10:17;6.10;99.90
9179;DHT22;71287;48.414;11.478;2023-12-20T00:12:45;6.10;99.90
9179;DHT22;71287;48.414;11.478;2023-12-20T00:15:12;6.10;99.90
9179;DHT22;71287;48.414;11.478;2023-12-20T00:17:38;6.10;99.90
9179;DHT22;71287;48.414;11.478;2023-12-20T00:20:06;6.20;99.90
9179;DHT22;71287;48.414;11.478;2023-12-20T00:22:33;6.20;99.90
9179;DHT22;71287;48.414;11.478;2023-12-20T00:25:00;6.20;99.90
9179;DHT22;71287;48.414;11.478;2023-12-20T00:27:27;6.20;99.90
9179;DHT22;71287;48.414;11.478;2023-12-20T00:29:55;6.20;99.90
9179;DHT22;71287;48.414;11.478;2023-12-20T00:32:21;6.20;99.90
9179;DHT22;71287;48.414;11.478;2023-12-20T00:34:48;6.20;99.90
9179;DHT22;71287;48.414;11.478;2023-12-20T00:37:15;6.20;99.90
9179;DHT22;71287;48.414;11.478;2023-12-20T00:39:42;6.20;99.90
9179;DHT22;71287;48.414;11.478;2023-12-20T00:42:09;6.20;99.90
9179;DHT22;71287;48.414;11.478;2023-12-20T00:44:36;6.20;99.90
9179;DHT22;71287;48.414;11.478;2023-12-20T00:47:04;6.20;99.90
9179;DHT22;71287;48.414;11.478;2023-12-20T00:49:31;6.20;99.90
9179;DHT22;71287;48.414;11.478;2023-12-20T00:51:58;6.20;99.90
9179;DHT22;71287;48.414;11.478;2023-12-20T00:54:24;6.20;99.90
9179;DHT22;71287;48.414;11.478;2023-12-20T00:56:51;6.10;99.90
9179;DHT22;71287;48.414;11.478;2023-12-20T00:59:18;6.10;99.90
9179;DHT22;71287;48.414;11.478;2023-12-20T01:01:45;6.10;99.90
9179;DHT22;71287;48.414;11.478;2023-12-20T01:04:13;6.20;99.90
9179;DHT22;71287;48.414;11.478;2023-12-20T01:06:40;6.20;99.90
9179;DHT22;71287;48.414;11.478;2023-12-20T01:09:07;6.20;99.90
9179;DHT22;71287;48.414;11.478;2023-12-20T01:11:33;6.20;99.90
9179;DHT22;71287;48.414;11.478;2023-12-20T01:14:00;6.20;99.90
9179;DHT22;71287;48.414;11.478;2023-12-20T01:16:27;6.20;99.90
9179;DHT22;71287;48.414;11.478;2023-12-20T01:18:53;6.20;99.90
9179;DHT22;71287;48.414;11.478;2023-12-20T01:21:21;6.20;99.80
9179;DHT22;71287;48.414;11.478;2023-12-20T01:23:48;6.20;99.80
9179;DHT22;71287;48.414;11.478;2023-12-20T01:26:15;6.20;99.80
9179;DHT22;71287;48.414;11.478;2023-12-20T01:28:42;6.30;99.90
9179;DHT22;71287;48.414;11.478;2023-12-20T01:31:08;6.30;99.90
9179;DHT22;71287;48.414;11.478;2023-12-20T01:33:35;6.30;99.90
9179;DHT22;71287;48.414;11.478;2023-12-20T01:36:02;6.30;99.90
9179;DHT22;71287;48.414;11.478;2023-12-20T01:38:30;6.30;99.90
9179;DHT22;71287;48.414;11.478;2023-12-20T01:40:57;6.30;99.90
9179;DHT22;71287;48.414;11.478;2023-12-20T01:43:24;6.40;99.90
9179;DHT22;71287;48.414;11.478;2023-12-20T01:45:51;6.40;99.90
9179;DHT22;71287;48.414;11.478;2023-12-20T01:48:19;6.40;99.90
9179;DHT22;71287;48.414;11.478;2023-12-20T01:50:46;6.40;99.90
9179;DHT22;71287;48.414;11.478;2023-12-20T01:53:14;6.40;99.90
9179;DHT22;71287;48.414;11.478;2023-12-20T01:55:42;6.40;99.90
9179;DHT22;71287;48.414;11.478;2023-12-20T01:58:10;6.40;99.90
9179;DHT22;71287;48.414;11.478;2023-12-20T02:00:38;6.40;99.90
9179;DHT22;71287;48.414;11.478;2023-12-20T02:03:05;6.40;99.90
9179;DHT22;71287;48.414;11.478;2023-12-20T02:05:33;6.50;99.90
9179;DHT22;71287;48.414;11.478;2023-12-20T02:08:00;6.50;99.90
9179;DHT22;71287;48.414;11.478;2023-12-20T02:10:27;6.50;99.90
9179;DHT22;71287;48.414;11.478;2023-12-20T02:12:55;6.50;99.90
9179;DHT22;71287;48.414;11.478;2023-12-20T02:15:22;6.50;99.90
9179;DHT22;71287;48.414;11.478;2023-12-20T02:17:49;6.50;99.90
9179;DHT22;71287;48.414;11.478;2023-12-20T02:20:16;6.50;99.90
9179;DHT22;71287;48.414;11.478;2023-12-20T02:22:45;6.50;99.90
9179;DHT22;71287;48.414;11.478;2023-12-20T02:25:11;6.40;99.90
9179;DHT22;71287;48.414;11.478;2023-12-20T02:27:38;6.40;99.90
9179;DHT22;71287;48.414;11.478;2023-12-20T02:30:07;6.40;99.90
9179;DHT22;71287;48.414;11.478;2023-12-20T02:32:34;6.40;99.90
9179;DHT22;71287;48.414;11.478;2023-12-20T02:35:01;6.30;99.90
9179;DHT22;71287;48.414;11.478;2023-12-20T02:37:28;6.30;99.90
9179;DHT22;71287;48.414;11.478;2023-12-20T02:39:56;6.30;99.90
9179;DHT22;71287;48.414;11.478;2023-12-20T02:42:22;6.30;99.90
9179;DHT22;71287;48.414;11.478;2023-12-20T02:44:49;6.30;99.90
9179;DHT22;71287;48.414;11.478;2023-12-20T02:47:16;6.30;99.90
9179;DHT22;71287;48.414;11.478;2023-12-20T02:49:43;6.30;99.90
9179;DHT22;71287;48.414;11.478;2023-12-20T02:52:09;6.30;99.90
9179;DHT22;71287;48.414;11.478;2023-12-20T02:54:36;6.40;99.90
9179;DHT22;71287;48.414;11.478;2023-12-20T02:57:04;6.30;99.90
9179;DHT22;71287;48.414;11.478;2023-12-20T02:59:31;6.40;99.90
9179;DHT22;71287;48.414;11.478;2023-12-20T03:01:58;6.40;99.90
9179;DHT22;71287;48.414;11.478;2023-12-20T03:04:25;6.40;99.90
9179;DHT22;71287;48.414;11.478;2023-12-20T03:06:52;6.40;99.90
9179;DHT22;71287;48.414;11.478;2023-12-20T03:09:18;6.40;99.90
9179;DHT22;71287;48.414;11.478;2023-12-20T03:11:45;6.40;99.90
9179;DHT22;71287;48.414;11.478;2023-12-20T03:14:13;6.40;99.90
9179;DHT22;71287;48.414;11.478;2023-12-20T03:16:40;6.40;99.90
9179;DHT22;71287;48.414;11.478;2023-12-20T03:19:07;6.40;99.90
9179;DHT22;71287;48.414;11.478;2023-12-20T03:21:33;6.40;99.90
9179;DHT22;71287;48.414;11.478;2023-12-20T03:24:00;6.50;99.90
9179;DHT22;71287;48.414;11.478;2023-12-20T03:26:27;6.40;99.90
9179;DHT22;71287;48.414;11.478;2023-12-20T03:28:53;6.50;99.90
9179;DHT22;71287;48.414;11.478;2023-12-20T03:31:22;6.50;99.90
9179;DHT22;71287;48.414;11.478;2023-12-20T03:33:48;6.50;99.90
9179;DHT22;71287;48.414;11.478;2023-12-20T03:36:16;6.50;99.90
9179;DHT22;71287;48.414;11.478;2023-12-20T03:38:43;6.50;99.90
9179;DHT22;71287;48.414;11.478;2023-12-20T03:41:09;6.50;99.90
9179;DHT22;71287;48.414;11.478;2023-12-20T03:43:36;6.50;99.90
9179;DHT22;71287;48.414;11.478;2023-12-20T03:46:03;6.50;99.90
9179;DHT22;71287;48.414;11.478;2023-12-20T03:48:31;6.50;99.90
9179;DHT22;71287;48.414;11.478;2023-12-20T03:50:58;6.40;99.90
9179;DHT22;71287;48.414;11.478;2023-12-20T03:53:25;6.40;99.90
9179;DHT22;71287;48.414;11.478;2023-12-20T03:55:51;6.40;99.90
9179;DHT22;71287;48.414;11.478;2023-12-20T03:58:18;6.30;99.90
9179;DHT22;71287;48.414;11.478;2023-12-20T04:00:45;6.30;99.90
9179;DHT22;71287;48.414;11.478;2023-12-20T04:03:12;6.30;99.90
9179;DHT22;71287;48.414;11.478;2023-12-20T04:05:41;6.30;99.90
9179;DHT22;71287;48.414;11.478;2023-12-20T04:08:09;6.30;99.90
9179;DHT22;71287;48.414;11.478;2023-12-20T04:10:35;6.20;99.90
9179;DHT22;71287;48.414;11.478;2023-12-20T04:13:03;6.20;99.90
9179;DHT22;71287;48.414;11.478;2023-12-20T04:15:30;6.20;99.90
9179;DHT22;71287;48.414;11.478;2023-12-20T04:17:56;6.20;99.90
9179;DHT22;71287;48.414;11.478;2023-12-20T04:20:23;6.10;99.90
9179;DHT22;71287;48.414;11.478;2023-12-20T04:22:51;6.10;99.90
9179;DHT22;71287;48.414;11.478;2023-12-20T04:25:18;6.10;99.90
9179;DHT22;71287;48.414;11.478;2023-12-20T04:27:44;6.10;99.90
9179;DHT22;71287;48.414;11.478;2023-12-20T04:30:12;6.10;99.90
9179;DHT22;71287;48.414;11.478;2023-12-20T04:32:38;6.10;99.90
9179;DHT22;71287;48.414;11.478;2023-12-20T04:35:05;6.10;99.90
9179;DHT22;71287;48.414;11.478;2023-12-20T04:37:33;6.00;99.90
9179;DHT22;71287;48.414;11.478;2023-12-20T04:40:02;6.00;99.90
9179;DHT22;71287;48.414;11.478;2023-12-20T04:42:30;6.00;99.90
9179;DHT22;71287;48.414;11.478;2023-12-20T04:44:57;6.00;99.90
9179;DHT22;71287;48.414;11.478;2023-12-20T04:47:24;6.00;99.90
9179;DHT22;71287;48.414;11.478;2023-12-20T04:49:51;6.00;99.90
9179;DHT22;71287;48.414;11.478;2023-12-20T04:52:18;6.00;99.90
9179;DHT22;71287;48.414;11.478;2023-12-20T04:54:45;6.00;99.90
9179;DHT22;71287;48.414;11.478;2023-12-20T04:57:13;6.00;99.90
9179;DHT22;71287;48.414;11.478;2023-12-20T04:59:40;6.00;99.90
9179;DHT22;71287;48.414;11.478;2023-12-20T05:02:07;6.00;99.90
9179;DHT22;71287;48.414;11.478;2023-12-20T05:04:34;6.00;99.90
9179;DHT22;71287;48.414;11.478;2023-12-20T05:07:01;6.00;99.90
9179;DHT22;71287;48.414;11.478;2023-12-20T05:09:30;6.00;99.90
9179;DHT22;71287;48.414;11.478;2023-12-20T05:11:57;6.00;99.90
9179;DHT22;71287;48.414;11.478;2023-12-20T05:14:25;6.00;99.90
9179;DHT22;71287;48.414;11.478;2023-12-20T05:16:52;6.00;99.90
9179;DHT22;71287;48.414;11.478;2023-12-20T05:19:18;6.00;99.90
9179;DHT22;71287;48.414;11.478;2023-12-20T05:21:45;6.00;99.90
9179;DHT22;71287;48.414;11.478;2023-12-20T05:24:12;6.00;99.90
9179;DHT22;71287;48.414;11.478;2023-12-20T05:26:39;6.00;99.90
9179;DHT22;71287;48.414;11.478;2023-12-20T05:29:05;6.00;99.90
9179;DHT22;71287;48.414;11.478;2023-12-20T05:31:34;6.00;99.90
9179;DHT22;71287;48.414;11.478;2023-12-20T05:34:00;6.00;99.90
9179;DHT22;71287;48.414;11.478;2023-12-20T05:36:27;6.10;99.90
9179;DHT22;71287;48.414;11.478;2023-12-20T05:38:54;6.00;99.90
9179;DHT22;71287;48.414;11.478;2023-12-20T05:41:20;6.10;99.90
9179;DHT22;71287;48.414;11.478;2023-12-20T05:43:48;6.00;99.90
9179;DHT22;71287;48.414;11.478;2023-12-20T05:46:15;6.00;99.90
9179;DHT22;71287;48.414;11.478;2023-12-20T05:48:43;6.00;99.90
9179;DHT22;71287;48.414;11.478;2023-12-20T05:51:11;6.10;99.90
9179;DHT22;71287;48.414;11.478;2023-12-20T05:53:38;6.00;99.90
9179;DHT22;71287;48.414;11.478;2023-12-20T05:56:05;6.00;99.90
9179;DHT22;71287;48.414;11.478;2023-12-20T05:58:32;6.00;99.90
9179;DHT22;71287;48.414;11.478;2023-12-20T06:00:59;6.00;99.90
9179;DHT22;71287;48.414;11.478;2023-12-20T06:03:26;6.00;99.90
9179;DHT22;71287;48.414;11.478;2023-12-20T06:05:54;6.00;99.90
9179;DHT22;71287;48.414;11.478;2023-12-20T06:08:21;6.00;99.90
9179;DHT22;71287;48.414;11.478;2023-12-20T06:10:48;5.90;99.90
9179;DHT22;71287;48.414;11.478;2023-12-20T06:13:15;6.00;99.90
9179;DHT22;71287;48.414;11.478;2023-12-20T06:15:42;6.00;99.90
9179;DHT22;71287;48.414;11.478;2023-12-20T06:18:09;6.00;99.90
9179;DHT22;71287;48.414;11.478;2023-12-20T06:20:35;6.00;99.90
9179;DHT22;71287;48.414;11.478;2023-12-20T06:23:04;5.90;99.90
9179;DHT22;71287;48.414;11.478;2023-12-20T06:25:30;5.90;99.90
9179;DHT22;71287;48.414;11.478;2023-12-20T06:27:57;5.90;99.90
9179;DHT22;71287;48.414;11.478;2023-12-20T06:30:24;5.90;99.90
9179;DHT22;71287;48.414;11.478;2023-12-20T06:32:53;5.90;99.90
9179;DHT22;71287;48.414;11.478;2023-12-20T06:35:20;5.90;99.90
9179;DHT22;71287;48.414;11.478;2023-12-20T06:37:47;5.90;99.90
9179;DHT22;71287;48.414;11.478;2023-12-20T06:40:15;5.90;99.90
9179;DHT22;71287;48.414;11.478;2023-12-20T06:42:42;5.90;99.90
9179;DHT22;71287;48.414;11.478;2023-12-20T06:45:10;5.80;99.90
9179;DHT22;71287;48.414;11.478;2023-12-20T06:47:37;5.80;99.90
9179;DHT22;71287;48.414;11.478;2023-12-20T06:50:04;5.90;99.90
9179;DHT22;71287;48.414;11.478;2023-12-20T06:52:33;5.80;99.90
9179;DHT22;71287;48.414;11.478;2023-12-20T06:55:00;5.80;99.90
9179;DHT22;71287;48.414;11.478;2023-12-20T06:57:29;5.80;99.90
9179;DHT22;71287;48.414;11.478;2023-12-20T06:59:55;5.80;99.90
9179;DHT22;71287;48.414;11.478;2023-12-20T07:02:23;5.80;99.90
9179;DHT22;71287;48.414;11.478;2023-12-20T07:04:50;5.80;99.90
9179;DHT22;71287;48.414;11.478;2023-12-20T07:07:16;5.80;99.90
9179;DHT22;71287;48.414;11.478;2023-12-20T07:09:43;5.80;99.90
9179;DHT22;71287;48.414;11.478;2023-12-20T07:12:10;5.80;99.90
9179;DHT22;71287;48.414;11.478;2023-12-20T07:14:38;5.80;99.90
9179;DHT22;71287;48.414;11.478;2023-12-20T07:17:05;5.80;99.90
9179;DHT22;71287;48.414;11.478;2023-12-20T07:19:36;5.80;99.90
9179;DHT22;71287;48.414;11.478;2023-12-20T07:22:03;5.80;99.90
9179;DHT22;71287;48.414;11.478;2023-12-20T07:24:31;5.80;99.90
9179;DHT22;71287;48.414;11.478;2023-12-20T07:26:59;5.80;99.90
9179;DHT22;71287;48.414;11.478;2023-12-20T07:29:26;5.80;99.90
9179;DHT22;71287;48.414;11.478;2023-12-20T07:31:54;5.80;99.90
9179;DHT22;71287;48.414;11.478;2023-12-20T07:34:21;5.80;99.90
9179;DHT22;71287;48.414;11.478;2023-12-20T07:36:47;5.80;99.90
9179;DHT22;71287;48.414;11.478;2023-12-20T07:39:14;5.80;99.90
9179;DHT22;71287;48.414;11.478;2023-12-20T07:41:41;5.80;99.90
9179;DHT22;71287;48.414;11.478;2023-12-20T07:44:08;5.80;99.90
9179;DHT22;71287;48.414;11.478;2023-12-20T07:46:35;5.80;99.90
9179;DHT22;71287;48.414;11.478;2023-12-20T07:49:04;5.80;99.90
9179;DHT22;71287;48.414;11.478;2023-12-20T07:51:31;5.80;99.90
9179;DHT22;71287;48.414;11.478;2023-12-20T07:53:58;5.80;99.90
9179;DHT22;71287;48.414;11.478;2023-12-20T07:56:24;5.80;99.90
9179;DHT22;71287;48.414;11.478;2023-12-20T07:58:51;5.80;99.90
9179;DHT22;71287;48.414;11.478;2023-12-20T08:01:18;5.80;99.90
9179;DHT22;71287;48.414;11.478;2023-12-20T08:03:45;5.80;99.90
9179;DHT22;71287;48.414;11.478;2023-12-20T08:06:13;5.80;99.90
9179;DHT22;71287;48.414;11.478;2023-12-20T08:08:40;5.80;99.90
9179;DHT22;71287;48.414;11.478;2023-12-20T08:11:06;5.80;99.90
9179;DHT22;71287;48.414;11.478;2023-12-20T08:13:33;5.80;99.90
9179;DHT22;71287;48.414;11.478;2023-12-20T08:16:00;5.80;99.90
9179;DHT22;71287;48.414;11.478;2023-12-20T08:18:28;5.80;99.90
9179;DHT22;71287;48.414;11.478;2023-12-20T08:20:55;5.80;99.90
9179;DHT22;71287;48.414;11.478;2023-12-20T08:23:23;5.90;99.90
9179;DHT22;71287;48.414;11.478;2023-12-20T08:25:50;5.90;99.90
9179;DHT22;71287;48.414;11.478;2023-12-20T08:28:16;5.90;99.90
9179;DHT22;71287;48.414;11.478;2023-12-20T08:30:43;5.90;99.90
9179;DHT22;71287;48.414;11.478;2023-12-20T08:33:10;5.90;99.90
9179;DHT22;71287;48.414;11.478;2023-12-20T08:35:38;6.00;99.90
9179;DHT22;71287;48.414;11.478;2023-12-20T08:38:05;6.00;99.90
9179;DHT22;71287;48.414;11.478;2023-12-20T08:40:33;6.00;99.90
9179;DHT22;71287;48.414;11.478;2023-12-20T08:43:00;6.00;99.90
9179;DHT22;71287;48.414;11.478;2023-12-20T08:45:26;6.00;99.90
9179;DHT22;71287;48.414;11.478;2023-12-20T08:47:53;6.00;99.90
9179;DHT22;71287;48.414;11.478;2023-12-20T08:50:20;6.00;99.90
9179;DHT22;71287;48.414;11.478;2023-12-20T08:52:46;6.10;99.90
9179;DHT22;71287;48.414;11.478;2023-12-20T08:55:13;6.10;99.90
9179;DHT22;71287;48.414;11.478;2023-12-20T08:57:43;6.10;99.90
9179;DHT22;71287;48.414;11.478;2023-12-20T09:00:11;6.10;99.90
9179;DHT22;71287;48.414;11.478;2023-12-20T09:02:38;6.10;99.90
9179;DHT22;71287;48.414;11.478;2023-12-20T09:05:05;6.10;99.90
9179;DHT22;71287;48.414;11.478;2023-12-20T09:07:32;6.10;99.90
9179;DHT22;71287;48.414;11.478;2023-12-20T09:09:58;6.10;99.90
9179;DHT22;71287;48.414;11.478;2023-12-20T09:12:25;6.10;99.90
9179;DHT22;71287;48.414;11.478;2023-12-20T09:14:54;6.20;99.90
9179;DHT22;71287;48.414;11.478;2023-12-20T09:17:21;6.20;99.90
9179;DHT22;71287;48.414;11.478;2023-12-20T09:19:48;6.20;99.90
9179;DHT22;71287;48.414;11.478;2023-12-20T09:22:15;6.20;99.90
9179;DHT22;71287;48.414;11.478;2023-12-20T09:24:42;6.30;99.90
9179;DHT22;71287;48.414;11.478;2023-12-20T09:27:10;6.30;99.90
9179;DHT22;71287;48.414;11.478;2023-12-20T09:29:37;6.30;99.90
9179;DHT22;71287;48.414;11.478;2023-12-20T09:32:05;6.40;99.90
9179;DHT22;71287;48.414;11.478;2023-12-20T09:34:32;6.40;99.90
9179;DHT22;71287;48.414;11.478;2023-12-20T09:36:59;6.50;99.90
9179;DHT22;71287;48.414;11.478;2023-12-20T09:39:25;6.50;99.90
9179;DHT22;71287;48.414;11.478;2023-12-20T09:42:00;6.60;99.90
9179;DHT22;71287;48.414;11.478;2023-12-20T09:44:27;6.60;99.90
9179;DHT22;71287;48.414;11.478;2023-12-20T09:46:55;6.70;99.90
9179;DHT22;71287;48.414;11.478;2023-12-20T09:49:25;6.70;99.90
9179;DHT22;71287;48.414;11.478;2023-12-20T09:51:54;6.80;99.90
9179;DHT22;71287;48.414;11.478;2023-12-20T09:54:21;6.80;99.90
9179;DHT22;71287;48.414;11.478;2023-12-20T09:56:48;6.90;99.90
9179;DHT22;71287;48.414;11.478;2023-12-20T09:59:15;6.90;99.90
9179;DHT22;71287;48.414;11.478;2023-12-20T10:01:43;6.90;99.90
9179;DHT22;71287;48.414;11.478;2023-12-20T10:04:10;7.00;99.90
9179;DHT22;71287;48.414;11.478;2023-12-20T10:06:40;7.00;99.90
9179;DHT22;71287;48.414;11.478;2023-12-20T10:09:07;7.00;99.90
9179;DHT22;71287;48.414;11.478;2023-12-20T10:11:35;7.00;99.90
9179;DHT22;71287;48.414;11.478;2023-12-20T10:14:03;7.00;99.90
9179;DHT22;71287;48.414;11.478;2023-12-20T10:16:29;7.00;99.90
9179;DHT22;71287;48.414;11.478;2023-12-20T10:18:57;7.00;99.90
9179;DHT22;71287;48.414;11.478;2023-12-20T10:21:24;7.00;99.90
9179;DHT22;71287;48.414;11.478;2023-12-20T10:23:53;7.00;99.90
9179;DHT22;71287;48.414;11.478;2023-12-20T10:26:21;7.00;99.90
9179;DHT22;71287;48.414;11.478;2023-12-20T10:28:50;7.00;99.90
9179;DHT22;71287;48.414;11.478;2023-12-20T10:31:28;7.00;99.90
9179;DHT22;71287;48.414;11.478;2023-12-20T10:33:56;7.00;99.90
9179;DHT22;71287;48.414;11.478;2023-12-20T10:36:24;7.00;99.90
9179;DHT22;71287;48.414;11.478;2023-12-20T10:38:54;7.00;99.90
9179;DHT22;71287;48.414;11.478;2023-12-20T10:41:25;7.00;99.90
9179;DHT22;71287;48.414;11.478;2023-12-20T10:43:54;7.10;99.90
9179;DHT22;71287;48.414;11.478;2023-12-20T10:46:21;7.10;99.90
9179;DHT22;71287;48.414;11.478;2023-12-20T10:48:49;7.20;99.90
9179;DHT22;71287;48.414;11.478;2023-12-20T10:51:18;7.30;99.90
9179;DHT22;71287;48.414;11.478;2023-12-20T10:53:47;7.40;99.90
9179;DHT22;71287;48.414;11.478;2023-12-20T10:56:16;7.50;99.90
9179;DHT22;71287;48.414;11.478;2023-12-20T10:58:43;7.70;99.90
9179;DHT22;71287;48.414;11.478;2023-12-20T11:01:13;7.70;99.90
9179;DHT22;71287;48.414;11.478;2023-12-20T11:03:44;7.70;99.90
9179;DHT22;71287;48.414;11.478;2023-12-20T11:06:20;7.70;99.90
9179;DHT22;71287;48.414;11.478;2023-12-20T11:08:53;7.70;99.90
9179;DHT22;71287;48.414;11.478;2023-12-20T11:11:30;7.60;99.90
9179;DHT22;71287;48.414;11.478;2023-12-20T11:14:02;7.60;99.90
9179;DHT22;71287;48.414;11.478;2023-12-20T11:16:31;7.60;99.90
9179;DHT22;71287;48.414;11.478;2023-12-20T11:19:02;7.60;99.90
9179;DHT22;71287;48.414;11.478;2023-12-20T11:21:31;7.50;99.90
9179;DHT22;71287;48.414;11.478;2023-12-20T11:23:57;7.50;99.90
9179;DHT22;71287;48.414;11.478;2023-12-20T11:26:28;7.50;99.90
9179;DHT22;71287;48.414;11.478;2023-12-20T11:29:31;7.50;99.90
9179;DHT22;71287;48.414;11.478;2023-12-20T11:32:00;7.50;99.90
9179;DHT22;71287;48.414;11.478;2023-12-20T11:34:27;7.60;99.90
9179;DHT22;71287;48.414;11.478;2023-12-20T11:36:58;7.60;99.90
9179;DHT22;71287;48.414;11.478;2023-12-20T11:39:26;7.50;99.90
9179;DHT22;71287;48.414;11.478;2023-12-20T11:41:56;7.50;99.90
9179;DHT22;71287;48.414;11.478;2023-12-20T11:44:25;7.30;99.90
9179;DHT22;71287;48.414;11.478;2023-12-20T11:46:52;7.30;99.90
9179;DHT22;71287;48.414;11.478;2023-12-20T11:49:23;7.30;99.90
9179;DHT22;71287;48.414;11.478;2023-12-20T11:51:50;7.40;99.90
9179;DHT22;71287;48.414;11.478;2023-12-20T11:54:17;7.40;99.90
9179;DHT22;71287;48.414;11.478;2023-12-20T11:56:44;7.40;99.90
9179;DHT22;71287;48.414;11.478;2023-12-20T11:59:12;7.30;99.90
9179;DHT22;71287;48.414;11.478;2023-12-20T12:01:39;7.40;99.90
9179;DHT22;71287;48.414;11.478;2023-12-20T12:04:06;7.40;99.90
9179;DHT22;71287;48.414;11.478;2023-12-20T12:06:33;7.30;99.90
9179;DHT22;71287;48.414;11.478;2023-12-20T12:09:00;7.40;99.90
9179;DHT22;71287;48.414;11.478;2023-12-20T12:11:27;7.40;99.90
9179;DHT22;71287;48.414;11.478;2023-12-20T12:13:53;7.40;99.90
9179;DHT22;71287;48.414;11.478;2023-12-20T12:16:22;7.50;99.90
9179;DHT22;71287;48.414;11.478;2023-12-20T12:18:55;7.50;99.90
9179;DHT22;71287;48.414;11.478;2023-12-20T12:21:22;7.50;99.90
9179;DHT22;71287;48.414;11.478;2023-12-20T12:23:49;7.60;99.90
9179;DHT22;71287;48.414;11.478;2023-12-20T12:26:16;7.70;99.90
9179;DHT22;71287;48.414;11.478;2023-12-20T12:28:43;7.70;99.90
9179;DHT22;71287;48.414;11.478;2023-12-20T12:31:13;7.80;99.90
9179;DHT22;71287;48.414;11.478;2023-12-20T12:33:41;7.90;99.90
9179;DHT22;71287;48.414;11.478;2023-12-20T12:36:09;8.00;99.90
9179;DHT22;71287;48.414;11.478;2023-12-20T12:38:36;7.90;99.90
9179;DHT22;71287;48.414;11.478;2023-12-20T12:41:04;7.80;99.90
9179;DHT22;71287;48.414;11.478;2023-12-20T12:43:32;7.70;99.90
9179;DHT22;71287;48.414;11.478;2023-12-20T12:45:58;7.50;99.90
9179;DHT22;71287;48.414;11.478;2023-12-20T12:48:25;7.40;99.90
9179;DHT22;71287;48.414;11.478;2023-12-20T12:50:54;7.30;99.90
9179;DHT22;71287;48.414;11.478;2023-12-20T12:53:24;7.20;99.90
9179;DHT22;71287;48.414;11.478;2023-12-20T12:55:52;7.20;99.90
9179;DHT22;71287;48.414;11.478;2023-12-20T12:58:18;7.20;99.90
9179;DHT22;71287;48.414;11.478;2023-12-20T13:00:45;7.20;99.90
9179;DHT22;71287;48.414;11.478;2023-12-20T13:03:12;7.10;99.90
9179;DHT22;71287;48.414;11.478;2023-12-20T13:05:39;7.10;99.90
9179;DHT22;71287;48.414;11.478;2023-12-20T13:08:07;7.10;99.90
9179;DHT22;71287;48.414;11.478;2023-12-20T13:10:35;7.00;99.90
9179;DHT22;71287;48.414;11.478;2023-12-20T13:13:01;7.00;99.90
9179;DHT22;71287;48.414;11.478;2023-12-20T13:15:29;6.90;99.90
9179;DHT22;71287;48.414;11.478;2023-12-20T13:17:57;6.90;99.90
9179;DHT22;71287;48.414;11.478;2023-12-20T13:20:23;6.90;99.90
9179;DHT22;71287;48.414;11.478;2023-12-20T13:22:50;6.90;99.90
9179;DHT22;71287;48.414;11.478;2023-12-20T13:25:18;6.80;99.90
9179;DHT22;71287;48.414;11.478;2023-12-20T13:27:45;6.80;99.90
9179;DHT22;71287;48.414;11.478;2023-12-20T13:30:12;6.70;99.90
9179;DHT22;71287;48.414;11.478;2023-12-20T13:32:39;6.70;99.90
9179;DHT22;71287;48.414;11.478;2023-12-20T13:35:06;6.70;99.90
9179;DHT22;71287;48.414;11.478;2023-12-20T13:37:33;6.60;99.90
9179;DHT22;71287;48.414;11.478;2023-12-20T13:40:00;6.50;99.90
9179;DHT22;71287;48.414;11.478;2023-12-20T13:42:29;6.50;99.90
9179;DHT22;71287;48.414;11.478;2023-12-20T13:44:56;6.50;99.90
9179;DHT22;71287;48.414;11.478;2023-12-20T13:47:23;6.40;99.90
9179;DHT22;71287;48.414;11.478;2023-12-20T13:49:49;6.40;99.90
9179;DHT22;71287;48.414;11.478;2023-12-20T13:52:16;6.30;99.90
9179;DHT22;71287;48.414;11.478;2023-12-20T13:54:44;6.30;99.90
9179;DHT22;71287;48.414;11.478;2023-12-20T13:57:10;6.20;99.90
9179;DHT22;71287;48.414;11.478;2023-12-20T13:59:38;6.10;99.90
9179;DHT22;71287;48.414;11.478;2023-12-20T14:02:05;6.00;99.90
9179;DHT22;71287;48.414;11.478;2023-12-20T14:04:32;5.90;99.90
9179;DHT22;71287;48.414;11.478;2023-12-20T14:06:59;5.90;99.90
9179;DHT22;71287;48.414;11.478;2023-12-20T14:09:25;5.80;99.90
9179;DHT22;71287;48.414;11.478;2023-12-20T14:11:52;5.80;99.90
9179;DHT22;71287;48.414;11.478;2023-12-20T14:14:20;5.80;99.90
9179;DHT22;71287;48.414;11.478;2023-12-20T14:16:48;5.80;99.90
9179;DHT22;71287;48.414;11.478;2023-12-20T14:19:16;5.80;99.90
9179;DHT22;71287;48.414;11.478;2023-12-20T14:21:43;5.70;99.90
9179;DHT22;71287;48.414;11.478;2023-12-20T14:24:11;5.60;99.90
9179;DHT22;71287;48.414;11.478;2023-12-20T14:26:40;5.50;99.90
9179;DHT22;71287;48.414;11.478;2023-12-20T14:29:07;5.40;99.90
9179;DHT22;71287;48.414;11.478;2023-12-20T14:31:34;5.40;99.90
9179;DHT22;71287;48.414;11.478;2023-12-20T14:34:03;5.30;99.90
9179;DHT22;71287;48.414;11.478;2023-12-20T14:36:30;5.30;99.90
9179;DHT22;71287;48.414;11.478;2023-12-20T14:38:57;5.20;99.90
9179;DHT22;71287;48.414;11.478;2023-12-20T14:41:24;5.10;99.90
9179;DHT22;71287;48.414;11.478;2023-12-20T14:43:51;5.10;99.90
9179;DHT22;71287;48.414;11.478;2023-12-20T14:46:19;5.00;99.90
9179;DHT22;71287;48.414;11.478;2023-12-20T14:48:45;5.00;99.90
9179;DHT22;71287;48.414;11.478;2023-12-20T14:51:15;4.90;99.90
9179;DHT22;71287;48.414;11.478;2023-12-20T14:53:42;4.90;99.90
9179;DHT22;71287;48.414;11.478;2023-12-20T14:56:08;4.90;99.90
9179;DHT22;71287;48.414;11.478;2023-12-20T14:58:35;4.90;99.90
9179;DHT22;71287;48.414;11.478;2023-12-20T15:01:02;4.90;99.90
9179;DHT22;71287;48.414;11.478;2023-12-20T15:03:29;5.00;99.90
9179;DHT22;71287;48.414;11.478;2023-12-20T15:05:56;5.00;99.90
9179;DHT22;71287;48.414;11.478;2023-12-20T15:08:25;5.00;99.90
9179;DHT22;71287;48.414;11.478;2023-12-20T15:10:52;5.00;99.90
9179;DHT22;71287;48.414;11.478;2023-12-20T15:13:18;5.00;99.90
9179;DHT22;71287;48.414;11.478;2023-12-20T15:15:45;4.90;99.90
9179;DHT22;71287;48.414;11.478;2023-12-20T15:18:12;4.90;99.90
9179;DHT22;71287;48.414;11.478;2023-12-20T15:20:39;4.80;99.90
9179;DHT22;71287;48.414;11.478;2023-12-20T15:23:09;4.70;99.90
9179;DHT22;71287;48.414;11.478;2023-12-20T15:25:37;4.70;99.90
9179;DHT22;71287;48.414;11.478;2023-12-20T15:28:04;4.60;99.90
9179;DHT22;71287;48.414;11.478;2023-12-20T15:30:31;4.50;99.90
9179;DHT22;71287;48.414;11.478;2023-12-20T15:32:58;4.50;99.90
9179;DHT22;71287;48.414;11.478;2023-12-20T15:35:25;4.50;99.90
9179;DHT22;71287;48.414;11.478;2023-12-20T15:37:52;4.40;99.90
9179;DHT22;71287;48.414;11.478;2023-12-20T15:40:19;4.40;99.90
9179;DHT22;71287;48.414;11.478;2023-12-20T15:42:47;4.40;99.90
9179;DHT22;71287;48.414;11.478;2023-12-20T15:45:13;4.40;99.90